sensor_id;sensor_type;location;lat;lon;timestamp;P1;durP1;ratioP1;P2;durP2;ratioP2
37299;SDS011;23184;51.902;12.836;2023-01-10T00:00:21;4.32;;;1.90;;
37299;SDS011;23184;51.902;12.836;2023-01-10T00:02:49;5.35;;;2.22;;
37299;SDS011;23184;51.902;12.836;2023-01-10T00:05:15;7.07;;;2.30;;
37299;SDS011;23184;51.902;12.836;2023-01-10T00:07:41;3.78;;;2.33;;
37299;SDS011;23184;51.902;12.836;2023-01-10T00:10:07;5.82;;;2.20;;
37299;SDS011;23184;51.902;12.836;2023-01-10T00:12:33;3.47;;;1.80;;
37299;SDS011;23184;51.902;12.836;2023-01-10T00:15:17;4.28;;;2.22;;
37299;SDS011;23184;51.902;12.836;2023-01-10T00:17:43;3.97;;;2.20;;
37299;SDS011;23184;51.902;12.836;2023-01-10T00:20:08;6.93;;;3.08;;
37299;SDS011;23184;51.902;12.836;2023-01-10T00:22:34;5.45;;;2.83;;
37299;SDS011;23184;51.902;12.836;2023-01-10T00:25:00;6.22;;;3.35;;
37299;SDS011;23184;51.902;12.836;2023-01-10T00:27:25;8.68;;;4.10;;
37299;SDS011;23184;51.902;12.836;2023-01-10T00:29:51;5.85;;;3.60;;
37299;SDS011;23184;51.902;12.836;2023-01-10T00:32:17;7.32;;;3.58;;
37299;SDS011;23184;51.902;12.836;2023-01-10T00:34:44;7.15;;;3.83;;
37299;SDS011;23184;51.902;12.836;2023-01-10T00:37:09;6.80;;;3.38;;
37299;SDS011;23184;51.902;12.836;2023-01-10T00:39:35;7.03;;;3.60;;
37299;SDS011;23184;51.902;12.836;2023-01-10T00:42:00;8.98;;;3.70;;
37299;SDS011;23184;51.902;12.836;2023-01-10T00:44:45;7.57;;;3.45;;
37299;SDS011;23184;51.902;12.836;2023-01-10T00:47:11;6.65;;;2.83;;
37299;SDS011;23184;51.902;12.836;2023-01-10T00:49:39;10.95;;;3.88;;
37299;SDS011;23184;51.902;12.836;2023-01-10T00:52:05;6.72;;;3.65;;
37299;SDS011;23184;51.902;12.836;2023-01-10T00:54:30;6.85;;;3.53;;
37299;SDS011;23184;51.902;12.836;2023-01-10T00:56:56;8.30;;;4.10;;
37299;SDS011;23184;51.902;12.836;2023-01-10T00:59:22;6.50;;;3.60;;
37299;SDS011;23184;51.902;12.836;2023-01-10T01:01:48;5.65;;;3.50;;
37299;SDS011;23184;51.902;12.836;2023-01-10T01:04:14;9.02;;;3.67;;
37299;SDS011;23184;51.902;12.836;2023-01-10T01:06:41;10.40;;;4.22;;
37299;SDS011;23184;51.902;12.836;2023-01-10T01:09:08;8.35;;;3.80;;
37299;SDS011;23184;51.902;12.836;2023-01-10T01:11:34;7.25;;;3.42;;
37299;SDS011;23184;51.902;12.836;2023-01-10T01:13:59;7.65;;;3.80;;
37299;SDS011;23184;51.902;12.836;2023-01-10T01:16:25;11.50;;;4.10;;
37299;SDS011;23184;51.902;12.836;2023-01-10T01:18:50;9.15;;;4.60;;
37299;SDS011;23184;51.902;12.836;2023-01-10T01:21:16;8.80;;;4.82;;
37299;SDS011;23184;51.902;12.836;2023-01-10T01:23:42;9.10;;;4.20;;
37299;SDS011;23184;51.902;12.836;2023-01-10T01:26:07;9.27;;;4.13;;
37299;SDS011;23184;51.902;12.836;2023-01-10T01:28:35;8.43;;;4.10;;
37299;SDS011;23184;51.902;12.836;2023-01-10T01:31:07;7.18;;;3.95;;
37299;SDS011;23184;51.902;12.836;2023-01-10T01:33:34;13.43;;;5.35;;
37299;SDS011;23184;51.902;12.836;2023-01-10T01:35:59;9.15;;;4.03;;
37299;SDS011;23184;51.902;12.836;2023-01-10T01:38:25;10.90;;;4.65;;
37299;SDS011;23184;51.902;12.836;2023-01-10T01:40:51;6.93;;;3.67;;
37299;SDS011;23184;51.902;12.836;2023-01-10T01:43:23;7.80;;;4.00;;
37299;SDS011;23184;51.902;12.836;2023-01-10T01:45:50;8.70;;;4.10;;
37299;SDS011;23184;51.902;12.836;2023-01-10T01:48:18;9.75;;;4.07;;
37299;SDS011;23184;51.902;12.836;2023-01-10T01:51:09;15.50;;;5.10;;
37299;SDS011;23184;51.902;12.836;2023-01-10T01:53:42;16.90;;;5.05;;
37299;SDS011;23184;51.902;12.836;2023-01-10T01:56:24;9.07;;;4.50;;
37299;SDS011;23184;51.902;12.836;2023-01-10T01:58:55;9.27;;;4.20;;
37299;SDS011;23184;51.902;12.836;2023-01-10T02:01:29;10.40;;;4.60;;
37299;SDS011;23184;51.902;12.836;2023-01-10T02:03:58;10.13;;;5.00;;
37299;SDS011;23184;51.902;12.836;2023-01-10T02:06:41;13.32;;;4.95;;
37299;SDS011;23184;51.902;12.836;2023-01-10T02:09:16;7.03;;;3.88;;
37299;SDS011;23184;51.902;12.836;2023-01-10T02:12:18;11.32;;;5.35;;
37299;SDS011;23184;51.902;12.836;2023-01-10T02:14:43;12.88;;;4.82;;
37299;SDS011;23184;51.902;12.836;2023-01-10T02:17:11;13.27;;;5.45;;
37299;SDS011;23184;51.902;12.836;2023-01-10T02:34:07;16.35;;;5.70;;
37299;SDS011;23184;51.902;12.836;2023-01-10T02:36:49;13.60;;;5.25;;
37299;SDS011;23184;51.902;12.836;2023-01-10T02:42:18;11.05;;;5.72;;
37299;SDS011;23184;51.902;12.836;2023-01-10T02:45:03;12.40;;;5.80;;
37299;SDS011;23184;51.902;12.836;2023-01-10T02:47:39;12.00;;;5.45;;
37299;SDS011;23184;51.902;12.836;2023-01-10T02:53:05;17.10;;;6.38;;
37299;SDS011;23184;51.902;12.836;2023-01-10T02:58:27;14.80;;;6.15;;
37299;SDS011;23184;51.902;12.836;2023-01-10T03:01:18;15.75;;;6.47;;
37299;SDS011;23184;51.902;12.836;2023-01-10T03:03:54;12.52;;;6.65;;
37299;SDS011;23184;51.902;12.836;2023-01-10T03:06:44;12.40;;;6.38;;
37299;SDS011;23184;51.902;12.836;2023-01-10T03:09:19;13.73;;;6.43;;
37299;SDS011;23184;51.902;12.836;2023-01-10T03:11:54;14.27;;;6.38;;
37299;SDS011;23184;51.902;12.836;2023-01-10T03:14:27;16.55;;;6.35;;
37299;SDS011;23184;51.902;12.836;2023-01-10T03:16:56;16.42;;;6.78;;
37299;SDS011;23184;51.902;12.836;2023-01-10T03:19:30;15.80;;;6.63;;
37299;SDS011;23184;51.902;12.836;2023-01-10T03:22:01;17.73;;;6.50;;
37299;SDS011;23184;51.902;12.836;2023-01-10T03:24:35;14.43;;;6.65;;
37299;SDS011;23184;51.902;12.836;2023-01-10T03:30:02;17.73;;;6.43;;
37299;SDS011;23184;51.902;12.836;2023-01-10T03:32:50;12.80;;;5.63;;
37299;SDS011;23184;51.902;12.836;2023-01-10T03:35:17;14.43;;;5.78;;
37299;SDS011;23184;51.902;12.836;2023-01-10T03:37:54;15.90;;;6.75;;
37299;SDS011;23184;51.902;12.836;2023-01-10T03:40:33;17.90;;;6.20;;
37299;SDS011;23184;51.902;12.836;2023-01-10T03:43:11;14.43;;;7.53;;
37299;SDS011;23184;51.902;12.836;2023-01-10T03:46:10;14.52;;;6.28;;
37299;SDS011;23184;51.902;12.836;2023-01-10T03:48:42;14.65;;;6.43;;
37299;SDS011;23184;51.902;12.836;2023-01-10T03:51:11;14.25;;;6.30;;
37299;SDS011;23184;51.902;12.836;2023-01-10T03:53:37;17.30;;;6.20;;
37299;SDS011;23184;51.902;12.836;2023-01-10T03:56:04;12.65;;;6.28;;
37299;SDS011;23184;51.902;12.836;2023-01-10T03:58:30;13.63;;;6.80;;
37299;SDS011;23184;51.902;12.836;2023-01-10T04:00:56;16.35;;;6.50;;
37299;SDS011;23184;51.902;12.836;2023-01-10T04:03:21;14.20;;;6.20;;
37299;SDS011;23184;51.902;12.836;2023-01-10T04:05:47;14.93;;;6.63;;
37299;SDS011;23184;51.902;12.836;2023-01-10T04:08:13;21.90;;;7.10;;
37299;SDS011;23184;51.902;12.836;2023-01-10T04:10:38;10.40;;;6.22;;
37299;SDS011;23184;51.902;12.836;2023-01-10T04:13:04;12.63;;;6.40;;
37299;SDS011;23184;51.902;12.836;2023-01-10T04:15:30;12.00;;;6.63;;
37299;SDS011;23184;51.902;12.836;2023-01-10T04:17:55;17.98;;;6.28;;
37299;SDS011;23184;51.902;12.836;2023-01-10T04:20:21;14.05;;;6.80;;
37299;SDS011;23184;51.902;12.836;2023-01-10T04:22:50;17.50;;;6.55;;
37299;SDS011;23184;51.902;12.836;2023-01-10T04:25:16;14.82;;;7.18;;
37299;SDS011;23184;51.902;12.836;2023-01-10T04:27:41;17.90;;;6.88;;
37299;SDS011;23184;51.902;12.836;2023-01-10T04:30:07;11.70;;;7.05;;
37299;SDS011;23184;51.902;12.836;2023-01-10T04:32:33;15.95;;;6.63;;
37299;SDS011;23184;51.902;12.836;2023-01-10T04:34:59;13.40;;;6.47;;
37299;SDS011;23184;51.902;12.836;2023-01-10T04:37:24;12.77;;;6.32;;
37299;SDS011;23184;51.902;12.836;2023-01-10T04:39:49;15.93;;;6.45;;
37299;SDS011;23184;51.902;12.836;2023-01-10T04:42:15;15.55;;;5.97;;
37299;SDS011;23184;51.902;12.836;2023-01-10T04:44:41;12.15;;;5.53;;
37299;SDS011;23184;51.902;12.836;2023-01-10T04:47:07;11.80;;;5.05;;
37299;SDS011;23184;51.902;12.836;2023-01-10T04:49:32;12.75;;;5.97;;
37299;SDS011;23184;51.902;12.836;2023-01-10T04:51:58;13.65;;;5.95;;
37299;SDS011;23184;51.902;12.836;2023-01-10T04:54:23;14.93;;;6.25;;
37299;SDS011;23184;51.902;12.836;2023-01-10T04:56:49;14.25;;;5.80;;
37299;SDS011;23184;51.902;12.836;2023-01-10T04:59:14;12.35;;;5.72;;
37299;SDS011;23184;51.902;12.836;2023-01-10T05:01:40;14.00;;;5.15;;
37299;SDS011;23184;51.902;12.836;2023-01-10T05:04:06;10.55;;;4.97;;
37299;SDS011;23184;51.902;12.836;2023-01-10T05:06:31;10.45;;;4.80;;
37299;SDS011;23184;51.902;12.836;2023-01-10T05:08:57;9.45;;;4.80;;
37299;SDS011;23184;51.902;12.836;2023-01-10T05:11:22;8.70;;;5.03;;
37299;SDS011;23184;51.902;12.836;2023-01-10T05:13:48;12.63;;;4.88;;
37299;SDS011;23184;51.902;12.836;2023-01-10T05:16:14;11.00;;;5.00;;
37299;SDS011;23184;51.902;12.836;2023-01-10T05:18:40;15.18;;;5.32;;
37299;SDS011;23184;51.902;12.836;2023-01-10T05:21:06;12.45;;;5.57;;
37299;SDS011;23184;51.902;12.836;2023-01-10T05:23:33;17.02;;;5.85;;
37299;SDS011;23184;51.902;12.836;2023-01-10T05:28:31;9.95;;;5.60;;
37299;SDS011;23184;51.902;12.836;2023-01-10T05:30:56;13.20;;;5.70;;
37299;SDS011;23184;51.902;12.836;2023-01-10T05:33:22;15.18;;;5.82;;
37299;SDS011;23184;51.902;12.836;2023-01-10T05:35:47;15.55;;;6.20;;
37299;SDS011;23184;51.902;12.836;2023-01-10T05:38:13;14.02;;;6.47;;
37299;SDS011;23184;51.902;12.836;2023-01-10T05:40:38;14.27;;;5.60;;
37299;SDS011;23184;51.902;12.836;2023-01-10T05:43:04;10.02;;;5.05;;
37299;SDS011;23184;51.902;12.836;2023-01-10T05:45:29;15.75;;;5.45;;
37299;SDS011;23184;51.902;12.836;2023-01-10T05:47:55;12.45;;;4.88;;
37299;SDS011;23184;51.902;12.836;2023-01-10T05:50:20;12.80;;;4.82;;
37299;SDS011;23184;51.902;12.836;2023-01-10T05:52:45;9.93;;;4.63;;
37299;SDS011;23184;51.902;12.836;2023-01-10T05:55:11;11.05;;;5.68;;
37299;SDS011;23184;51.902;12.836;2023-01-10T05:57:36;16.05;;;5.57;;
37299;SDS011;23184;51.902;12.836;2023-01-10T06:00:03;9.68;;;4.75;;
37299;SDS011;23184;51.902;12.836;2023-01-10T06:02:29;13.38;;;4.80;;
37299;SDS011;23184;51.902;12.836;2023-01-10T06:04:54;13.18;;;4.93;;
37299;SDS011;23184;51.902;12.836;2023-01-10T06:07:20;11.68;;;5.13;;
37299;SDS011;23184;51.902;12.836;2023-01-10T06:09:46;10.32;;;5.18;;
37299;SDS011;23184;51.902;12.836;2023-01-10T06:12:12;9.43;;;5.40;;
37299;SDS011;23184;51.902;12.836;2023-01-10T06:14:37;9.57;;;4.70;;
37299;SDS011;23184;51.902;12.836;2023-01-10T06:17:03;12.32;;;5.35;;
37299;SDS011;23184;51.902;12.836;2023-01-10T06:19:32;14.85;;;6.20;;
37299;SDS011;23184;51.902;12.836;2023-01-10T06:21:57;12.50;;;5.75;;
37299;SDS011;23184;51.902;12.836;2023-01-10T06:24:23;10.43;;;6.13;;
37299;SDS011;23184;51.902;12.836;2023-01-10T06:26:49;12.05;;;6.55;;
37299;SDS011;23184;51.902;12.836;2023-01-10T06:29:14;14.05;;;6.25;;
37299;SDS011;23184;51.902;12.836;2023-01-10T06:31:39;12.23;;;6.60;;
37299;SDS011;23184;51.902;12.836;2023-01-10T06:34:05;15.20;;;7.18;;
37299;SDS011;23184;51.902;12.836;2023-01-10T06:36:30;17.58;;;6.50;;
37299;SDS011;23184;51.902;12.836;2023-01-10T06:38:56;12.75;;;6.18;;
37299;SDS011;23184;51.902;12.836;2023-01-10T06:41:21;13.85;;;6.53;;
37299;SDS011;23184;51.902;12.836;2023-01-10T06:43:47;15.70;;;6.93;;
37299;SDS011;23184;51.902;12.836;2023-01-10T06:46:15;14.00;;;7.43;;
37299;SDS011;23184;51.902;12.836;2023-01-10T06:48:43;16.17;;;7.22;;
37299;SDS011;23184;51.902;12.836;2023-01-10T06:51:10;19.13;;;8.00;;
37299;SDS011;23184;51.902;12.836;2023-01-10T06:53:39;11.98;;;6.70;;
37299;SDS011;23184;51.902;12.836;2023-01-10T06:56:05;18.88;;;6.65;;
37299;SDS011;23184;51.902;12.836;2023-01-10T06:58:33;14.35;;;7.30;;
37299;SDS011;23184;51.902;12.836;2023-01-10T07:00:59;15.65;;;7.18;;
37299;SDS011;23184;51.902;12.836;2023-01-10T07:03:24;14.52;;;7.30;;
37299;SDS011;23184;51.902;12.836;2023-01-10T07:05:50;13.88;;;7.60;;
37299;SDS011;23184;51.902;12.836;2023-01-10T07:08:15;19.08;;;7.75;;
37299;SDS011;23184;51.902;12.836;2023-01-10T07:10:42;19.08;;;7.53;;
37299;SDS011;23184;51.902;12.836;2023-01-10T07:13:08;14.68;;;7.43;;
37299;SDS011;23184;51.902;12.836;2023-01-10T07:15:34;15.07;;;7.57;;
37299;SDS011;23184;51.902;12.836;2023-01-10T07:17:59;16.48;;;7.25;;
37299;SDS011;23184;51.902;12.836;2023-01-10T07:20:25;11.82;;;6.95;;
37299;SDS011;23184;51.902;12.836;2023-01-10T07:22:55;15.48;;;7.65;;
37299;SDS011;23184;51.902;12.836;2023-01-10T07:25:22;14.10;;;7.05;;
37299;SDS011;23184;51.902;12.836;2023-01-10T07:27:49;16.75;;;7.70;;
37299;SDS011;23184;51.902;12.836;2023-01-10T07:30:15;14.13;;;7.70;;
37299;SDS011;23184;51.902;12.836;2023-01-10T07:32:40;14.10;;;7.38;;
37299;SDS011;23184;51.902;12.836;2023-01-10T07:35:06;18.35;;;7.57;;
37299;SDS011;23184;51.902;12.836;2023-01-10T07:37:32;19.35;;;8.32;;
37299;SDS011;23184;51.902;12.836;2023-01-10T07:39:58;16.80;;;7.65;;
37299;SDS011;23184;51.902;12.836;2023-01-10T07:42:23;18.83;;;7.85;;
37299;SDS011;23184;51.902;12.836;2023-01-10T07:44:49;13.18;;;7.90;;
37299;SDS011;23184;51.902;12.836;2023-01-10T07:47:14;17.25;;;8.18;;
37299;SDS011;23184;51.902;12.836;2023-01-10T07:49:40;17.38;;;8.05;;
37299;SDS011;23184;51.902;12.836;2023-01-10T07:52:06;16.90;;;8.93;;
37299;SDS011;23184;51.902;12.836;2023-01-10T07:54:33;18.80;;;8.63;;
37299;SDS011;23184;51.902;12.836;2023-01-10T07:56:59;18.60;;;8.55;;
37299;SDS011;23184;51.902;12.836;2023-01-10T07:59:24;16.33;;;9.10;;
37299;SDS011;23184;51.902;12.836;2023-01-10T08:01:50;22.08;;;10.63;;
37299;SDS011;23184;51.902;12.836;2023-01-10T08:04:15;24.13;;;10.68;;
37299;SDS011;23184;51.902;12.836;2023-01-10T08:06:41;26.42;;;12.27;;
37299;SDS011;23184;51.902;12.836;2023-01-10T08:09:06;20.77;;;11.43;;
37299;SDS011;23184;51.902;12.836;2023-01-10T08:11:31;17.85;;;10.05;;
37299;SDS011;23184;51.902;12.836;2023-01-10T08:13:57;24.88;;;10.70;;
37299;SDS011;23184;51.902;12.836;2023-01-10T08:16:23;22.45;;;11.32;;
37299;SDS011;23184;51.902;12.836;2023-01-10T08:18:48;20.00;;;10.75;;
37299;SDS011;23184;51.902;12.836;2023-01-10T08:21:13;21.83;;;10.82;;
37299;SDS011;23184;51.902;12.836;2023-01-10T08:23:39;24.27;;;10.35;;
37299;SDS011;23184;51.902;12.836;2023-01-10T08:26:05;18.52;;;9.05;;
37299;SDS011;23184;51.902;12.836;2023-01-10T08:28:31;18.23;;;9.82;;
37299;SDS011;23184;51.902;12.836;2023-01-10T08:30:56;18.33;;;9.35;;
37299;SDS011;23184;51.902;12.836;2023-01-10T08:33:22;14.43;;;8.18;;
37299;SDS011;23184;51.902;12.836;2023-01-10T08:35:49;20.30;;;10.48;;
37299;SDS011;23184;51.902;12.836;2023-01-10T08:38:15;16.48;;;8.60;;
37299;SDS011;23184;51.902;12.836;2023-01-10T08:40:41;21.38;;;9.10;;
37299;SDS011;23184;51.902;12.836;2023-01-10T08:43:08;22.50;;;9.75;;
37299;SDS011;23184;51.902;12.836;2023-01-10T08:45:35;19.52;;;9.98;;
37299;SDS011;23184;51.902;12.836;2023-01-10T08:48:02;21.95;;;9.00;;
37299;SDS011;23184;51.902;12.836;2023-01-10T08:50:28;21.63;;;10.27;;
37299;SDS011;23184;51.902;12.836;2023-01-10T08:52:56;22.80;;;8.77;;
37299;SDS011;23184;51.902;12.836;2023-01-10T08:55:23;21.35;;;9.05;;
37299;SDS011;23184;51.902;12.836;2023-01-10T08:57:48;21.75;;;8.40;;
37299;SDS011;23184;51.902;12.836;2023-01-10T09:00:14;19.05;;;7.95;;
37299;SDS011;23184;51.902;12.836;2023-01-10T09:02:40;13.60;;;8.02;;
37299;SDS011;23184;51.902;12.836;2023-01-10T09:05:05;17.48;;;7.97;;
37299;SDS011;23184;51.902;12.836;2023-01-10T09:07:31;21.10;;;8.38;;
37299;SDS011;23184;51.902;12.836;2023-01-10T09:09:57;20.85;;;9.20;;
37299;SDS011;23184;51.902;12.836;2023-01-10T09:12:22;19.40;;;7.57;;
37299;SDS011;23184;51.902;12.836;2023-01-10T09:15:06;15.95;;;7.88;;
37299;SDS011;23184;51.902;12.836;2023-01-10T09:17:32;25.60;;;9.35;;
37299;SDS011;23184;51.902;12.836;2023-01-10T09:19:57;21.38;;;7.70;;
37299;SDS011;23184;51.902;12.836;2023-01-10T09:22:23;14.75;;;6.28;;
37299;SDS011;23184;51.902;12.836;2023-01-10T09:24:48;19.23;;;7.03;;
37299;SDS011;23184;51.902;12.836;2023-01-10T09:27:14;15.25;;;7.22;;
37299;SDS011;23184;51.902;12.836;2023-01-10T09:29:39;17.52;;;7.78;;
37299;SDS011;23184;51.902;12.836;2023-01-10T09:32:05;18.17;;;8.38;;
37299;SDS011;23184;51.902;12.836;2023-01-10T09:34:31;24.67;;;8.68;;
37299;SDS011;23184;51.902;12.836;2023-01-10T09:36:57;18.88;;;8.18;;
37299;SDS011;23184;51.902;12.836;2023-01-10T09:39:22;21.63;;;7.82;;
37299;SDS011;23184;51.902;12.836;2023-01-10T09:44:42;17.23;;;6.28;;
37299;SDS011;23184;51.902;12.836;2023-01-10T09:53:12;13.65;;;4.63;;
37299;SDS011;23184;51.902;12.836;2023-01-10T09:55:41;13.10;;;5.05;;
37299;SDS011;23184;51.902;12.836;2023-01-10T09:58:13;13.73;;;4.22;;
37299;SDS011;23184;51.902;12.836;2023-01-10T10:00:43;14.70;;;4.45;;
37299;SDS011;23184;51.902;12.836;2023-01-10T10:03:13;10.98;;;4.68;;
37299;SDS011;23184;51.902;12.836;2023-01-10T10:05:44;13.13;;;4.15;;
37299;SDS011;23184;51.902;12.836;2023-01-10T10:08:12;11.73;;;4.40;;
37299;SDS011;23184;51.902;12.836;2023-01-10T10:10:42;11.88;;;4.43;;
37299;SDS011;23184;51.902;12.836;2023-01-10T10:13:19;18.38;;;5.10;;
37299;SDS011;23184;51.902;12.836;2023-01-10T10:19:03;13.85;;;5.38;;
37299;SDS011;23184;51.902;12.836;2023-01-10T10:27:57;21.02;;;4.57;;
37299;SDS011;23184;51.902;12.836;2023-01-10T10:33:38;12.35;;;4.50;;
37299;SDS011;23184;51.902;12.836;2023-01-10T10:36:23;16.15;;;3.72;;
37299;SDS011;23184;51.902;12.836;2023-01-10T10:38:59;13.98;;;4.35;;
37299;SDS011;23184;51.902;12.836;2023-01-10T10:41:42;11.80;;;3.90;;
37299;SDS011;23184;51.902;12.836;2023-01-10T10:47:11;12.85;;;4.63;;
37299;SDS011;23184;51.902;12.836;2023-01-10T10:52:25;15.55;;;3.78;;
37299;SDS011;23184;51.902;12.836;2023-01-10T10:54:55;16.63;;;4.10;;
37299;SDS011;23184;51.902;12.836;2023-01-10T10:57:22;19.85;;;5.03;;
37299;SDS011;23184;51.902;12.836;2023-01-10T10:59:51;12.15;;;3.40;;
37299;SDS011;23184;51.902;12.836;2023-01-10T11:02:20;14.80;;;3.90;;
37299;SDS011;23184;51.902;12.836;2023-01-10T11:04:59;25.77;;;4.63;;
37299;SDS011;23184;51.902;12.836;2023-01-10T11:07:31;12.25;;;4.00;;
37299;SDS011;23184;51.902;12.836;2023-01-10T11:09:58;13.15;;;3.08;;
37299;SDS011;23184;51.902;12.836;2023-01-10T11:12:45;8.35;;;2.70;;
37299;SDS011;23184;51.902;12.836;2023-01-10T11:15:37;8.80;;;3.50;;
37299;SDS011;23184;51.902;12.836;2023-01-10T11:18:13;11.38;;;2.60;;
37299;SDS011;23184;51.902;12.836;2023-01-10T11:23:49;11.70;;;3.10;;
37299;SDS011;23184;51.902;12.836;2023-01-10T11:26:24;6.43;;;2.42;;
37299;SDS011;23184;51.902;12.836;2023-01-10T11:31:39;11.13;;;2.72;;
37299;SDS011;23184;51.902;12.836;2023-01-10T11:34:07;6.63;;;2.20;;
37299;SDS011;23184;51.902;12.836;2023-01-10T11:36:56;9.95;;;2.10;;
37299;SDS011;23184;51.902;12.836;2023-01-10T11:39:23;7.30;;;2.25;;
37299;SDS011;23184;51.902;12.836;2023-01-10T11:41:49;8.32;;;2.25;;
37299;SDS011;23184;51.902;12.836;2023-01-10T11:44:24;5.95;;;2.75;;
37299;SDS011;23184;51.902;12.836;2023-01-10T11:46:58;4.88;;;1.75;;
37299;SDS011;23184;51.902;12.836;2023-01-10T11:49:29;11.75;;;2.63;;
37299;SDS011;23184;51.902;12.836;2023-01-10T11:52:00;3.55;;;1.80;;
37299;SDS011;23184;51.902;12.836;2023-01-10T11:54:30;8.35;;;1.98;;
37299;SDS011;23184;51.902;12.836;2023-01-10T11:59:28;12.32;;;2.80;;
37299;SDS011;23184;51.902;12.836;2023-01-10T12:02:40;6.47;;;2.30;;
37299;SDS011;23184;51.902;12.836;2023-01-10T12:04:40;12.43;;;2.55;;
37299;SDS011;23184;51.902;12.836;2023-01-10T12:07:10;8.50;;;2.17;;
37299;SDS011;23184;51.902;12.836;2023-01-10T12:09:39;8.98;;;2.08;;
37299;SDS011;23184;51.902;12.836;2023-01-10T12:12:19;10.32;;;2.30;;
37299;SDS011;23184;51.902;12.836;2023-01-10T12:14:46;10.95;;;3.10;;
37299;SDS011;23184;51.902;12.836;2023-01-10T12:17:26;8.80;;;2.13;;
37299;SDS011;23184;51.902;12.836;2023-01-10T12:19:55;9.30;;;2.22;;
37299;SDS011;23184;51.902;12.836;2023-01-10T12:22:39;5.80;;;2.22;;
37299;SDS011;23184;51.902;12.836;2023-01-10T12:28:01;12.98;;;2.92;;
37299;SDS011;23184;51.902;12.836;2023-01-10T12:30:35;12.52;;;2.50;;
37299;SDS011;23184;51.902;12.836;2023-01-10T12:33:05;9.43;;;2.50;;
37299;SDS011;23184;51.902;12.836;2023-01-10T12:35:49;10.73;;;2.95;;
37299;SDS011;23184;51.902;12.836;2023-01-10T12:41:45;12.52;;;2.78;;
37299;SDS011;23184;51.902;12.836;2023-01-10T12:44:41;13.02;;;2.42;;
37299;SDS011;23184;51.902;12.836;2023-01-10T12:47:11;11.18;;;2.70;;
37299;SDS011;23184;51.902;12.836;2023-01-10T12:49:46;9.75;;;2.80;;
37299;SDS011;23184;51.902;12.836;2023-01-10T12:52:23;13.38;;;2.83;;
37299;SDS011;23184;51.902;12.836;2023-01-10T12:55:16;17.67;;;3.40;;
37299;SDS011;23184;51.902;12.836;2023-01-10T12:57:45;14.23;;;3.50;;
37299;SDS011;23184;51.902;12.836;2023-01-10T13:02:54;19.63;;;3.53;;
37299;SDS011;23184;51.902;12.836;2023-01-10T13:05:25;10.88;;;3.97;;
37299;SDS011;23184;51.902;12.836;2023-01-10T13:08:14;12.70;;;3.40;;
37299;SDS011;23184;51.902;12.836;2023-01-10T13:10:44;12.52;;;3.83;;
37299;SDS011;23184;51.902;12.836;2023-01-10T13:16:21;15.48;;;3.60;;
37299;SDS011;23184;51.902;12.836;2023-01-10T13:21:34;14.45;;;3.70;;
37299;SDS011;23184;51.902;12.836;2023-01-10T13:24:03;12.13;;;3.30;;
37299;SDS011;23184;51.902;12.836;2023-01-10T13:29:22;9.90;;;3.40;;
37299;SDS011;23184;51.902;12.836;2023-01-10T13:32:02;15.80;;;4.05;;
37299;SDS011;23184;51.902;12.836;2023-01-10T13:34:45;12.23;;;3.50;;
37299;SDS011;23184;51.902;12.836;2023-01-10T13:37:13;19.00;;;3.55;;
37299;SDS011;23184;51.902;12.836;2023-01-10T13:39:50;12.18;;;3.17;;
37299;SDS011;23184;51.902;12.836;2023-01-10T13:45:28;10.02;;;3.78;;
37299;SDS011;23184;51.902;12.836;2023-01-10T13:47:56;12.93;;;2.85;;
37299;SDS011;23184;51.902;12.836;2023-01-10T13:52:49;8.88;;;2.40;;
37299;SDS011;23184;51.902;12.836;2023-01-10T13:57:53;9.90;;;2.38;;
37299;SDS011;23184;51.902;12.836;2023-01-10T14:00:21;14.23;;;3.17;;
37299;SDS011;23184;51.902;12.836;2023-01-10T14:03:34;12.60;;;2.67;;
37299;SDS011;23184;51.902;12.836;2023-01-10T14:08:32;11.40;;;2.47;;
37299;SDS011;23184;51.902;12.836;2023-01-10T14:11:10;7.32;;;2.22;;
37299;SDS011;23184;51.902;12.836;2023-01-10T14:13:37;10.95;;;2.00;;
37299;SDS011;23184;51.902;12.836;2023-01-10T14:16:25;6.70;;;1.95;;
37299;SDS011;23184;51.902;12.836;2023-01-10T14:18:59;17.90;;;2.25;;
37299;SDS011;23184;51.902;12.836;2023-01-10T14:21:28;8.05;;;1.85;;
37299;SDS011;23184;51.902;12.836;2023-01-10T14:23:55;9.13;;;2.22;;
37299;SDS011;23184;51.902;12.836;2023-01-10T14:26:30;10.80;;;2.55;;
37299;SDS011;23184;51.902;12.836;2023-01-10T14:28:58;11.05;;;2.60;;
37299;SDS011;23184;51.902;12.836;2023-01-10T14:31:37;11.80;;;2.60;;
37299;SDS011;23184;51.902;12.836;2023-01-10T14:34:27;12.77;;;2.85;;
37299;SDS011;23184;51.902;12.836;2023-01-10T14:37:08;12.45;;;2.85;;
37299;SDS011;23184;51.902;12.836;2023-01-10T14:39:51;10.38;;;2.45;;
37299;SDS011;23184;51.902;12.836;2023-01-10T14:42:19;9.07;;;2.65;;
37299;SDS011;23184;51.902;12.836;2023-01-10T14:44:50;12.93;;;2.00;;
37299;SDS011;23184;51.902;12.836;2023-01-10T14:47:37;9.45;;;2.10;;
37299;SDS011;23184;51.902;12.836;2023-01-10T14:50:03;7.47;;;2.10;;
37299;SDS011;23184;51.902;12.836;2023-01-10T14:52:29;7.22;;;2.40;;
37299;SDS011;23184;51.902;12.836;2023-01-10T14:55:09;7.78;;;2.30;;
37299;SDS011;23184;51.902;12.836;2023-01-10T14:57:41;9.00;;;2.35;;
37299;SDS011;23184;51.902;12.836;2023-01-10T15:00:32;10.60;;;2.30;;
37299;SDS011;23184;51.902;12.836;2023-01-10T15:03:00;9.85;;;2.35;;
37299;SDS011;23184;51.902;12.836;2023-01-10T15:05:29;16.25;;;3.55;;
37299;SDS011;23184;51.902;12.836;2023-01-10T15:08:13;10.13;;;2.42;;
37299;SDS011;23184;51.902;12.836;2023-01-10T15:10:41;13.23;;;3.25;;
37299;SDS011;23184;51.902;12.836;2023-01-10T15:13:09;7.95;;;2.80;;
37299;SDS011;23184;51.902;12.836;2023-01-10T15:15:39;11.20;;;2.67;;
37299;SDS011;23184;51.902;12.836;2023-01-10T15:20:55;7.47;;;2.88;;
37299;SDS011;23184;51.902;12.836;2023-01-10T15:23:21;11.70;;;2.85;;
37299;SDS011;23184;51.902;12.836;2023-01-10T15:25:57;11.68;;;3.00;;
37299;SDS011;23184;51.902;12.836;2023-01-10T15:28:26;11.70;;;2.80;;
37299;SDS011;23184;51.902;12.836;2023-01-10T15:30:55;9.45;;;2.88;;
37299;SDS011;23184;51.902;12.836;2023-01-10T15:33:29;6.30;;;2.63;;
37299;SDS011;23184;51.902;12.836;2023-01-10T15:36:01;10.18;;;3.03;;
37299;SDS011;23184;51.902;12.836;2023-01-10T15:38:40;9.60;;;3.28;;
37299;SDS011;23184;51.902;12.836;2023-01-10T15:41:09;6.93;;;2.75;;
37299;SDS011;23184;51.902;12.836;2023-01-10T15:43:41;14.30;;;3.28;;
37299;SDS011;23184;51.902;12.836;2023-01-10T15:46:15;12.23;;;3.42;;
37299;SDS011;23184;51.902;12.836;2023-01-10T15:48:59;11.75;;;3.33;;
37299;SDS011;23184;51.902;12.836;2023-01-10T15:51:39;11.45;;;4.07;;
37299;SDS011;23184;51.902;12.836;2023-01-10T15:54:47;13.25;;;3.70;;
37299;SDS011;23184;51.902;12.836;2023-01-10T15:56:57;13.88;;;3.60;;
37299;SDS011;23184;51.902;12.836;2023-01-10T15:59:31;12.88;;;3.78;;
37299;SDS011;23184;51.902;12.836;2023-01-10T16:04:39;10.48;;;3.15;;
37299;SDS011;23184;51.902;12.836;2023-01-10T16:07:10;18.63;;;4.38;;
37299;SDS011;23184;51.902;12.836;2023-01-10T16:10:07;12.15;;;5.38;;
37299;SDS011;23184;51.902;12.836;2023-01-10T16:13:09;16.23;;;5.03;;
37299;SDS011;23184;51.902;12.836;2023-01-10T16:15:50;13.88;;;4.78;;
37299;SDS011;23184;51.902;12.836;2023-01-10T16:18:17;11.40;;;5.68;;